createdAt,value
2022-09-03T00:01:51.861Z,75.20
2022-09-03T00:05:08.000Z,75.20
2022-09-03T00:07:55.573Z,75.40
2022-09-03T00:10:43.483Z,75.10
2022-09-03T00:13:13.905Z,75.20
2022-09-03T00:15:41.017Z,75.10
2022-09-03T00:18:18.206Z,75.20
2022-09-03T00:21:10.149Z,75.30
2022-09-03T00:23:41.093Z,75.50
2022-09-03T00:26:13.481Z,75.60
2022-09-03T00:28:43.299Z,75.60
2022-09-03T00:31:39.217Z,75.40
2022-09-03T00:34:39.238Z,75.90
2022-09-03T00:37:07.425Z,76.00
2022-09-03T00:39:41.363Z,75.90
2022-09-03T00:42:39.959Z,75.90
2022-09-03T00:45:15.729Z,76.30
2022-09-03T00:48:17.372Z,76.00
2022-09-03T00:50:53.329Z,76.30
2022-09-03T00:53:34.702Z,76.40
2022-09-03T00:56:16.040Z,76.60
2022-09-03T00:59:16.754Z,76.40
2022-09-03T01:01:43.749Z,76.70
2022-09-03T01:04:28.338Z,76.50
2022-09-03T01:06:58.908Z,76.60
2022-09-03T01:09:53.862Z,76.50
2022-09-03T01:12:37.892Z,76.70
2022-09-03T01:15:37.509Z,76.90
2022-09-03T01:18:34.655Z,77.10
2022-09-03T01:21:11.822Z,77.30
2022-09-03T01:23:59.959Z,76.70
2022-09-03T01:26:45.253Z,77.20
2022-09-03T01:29:32.118Z,77.00
2022-09-03T01:32:11.880Z,77.10
2022-09-03T01:35:19.206Z,76.90
2022-09-03T01:38:03.710Z,77.50
2022-09-03T01:40:36.125Z,77.60
2022-09-03T01:43:24.146Z,77.00
2022-09-03T01:46:00.532Z,77.50
2022-09-03T01:48:46.561Z,77.10
2022-09-03T01:51:22.553Z,77.30
2022-09-03T01:54:20.772Z,77.30
2022-09-03T01:57:34.754Z,77.50
2022-09-03T02:00:03.470Z,77.40
2022-09-03T02:02:32.646Z,77.40
2022-09-03T02:05:24.670Z,77.50
2022-09-03T02:07:58.076Z,77.90
2022-09-03T02:10:33.457Z,77.50
2022-09-03T02:13:04.482Z,77.50
2022-09-03T02:15:32.632Z,78.20
2022-09-03T02:18:04.276Z,77.70
2022-09-03T02:20:31.211Z,77.90
2022-09-03T02:22:58.946Z,77.70
2022-09-03T02:25:33.451Z,77.70
2022-09-03T02:28:00.907Z,78.00
2022-09-03T02:30:27.804Z,77.80
2022-09-03T02:32:54.454Z,77.80
2022-09-03T02:35:21.147Z,77.90
2022-09-03T02:37:47.769Z,77.90
2022-09-03T02:40:14.378Z,77.90
2022-09-03T02:42:41.569Z,78.00
2022-09-03T02:45:29.418Z,78.20
2022-09-03T02:47:59.651Z,78.20
2022-09-03T02:50:26.653Z,78.30
2022-09-03T02:52:53.522Z,78.30
2022-09-03T02:55:20.739Z,78.20
2022-09-03T02:57:47.387Z,78.20
2022-09-03T03:00:14.719Z,78.10
2022-09-03T03:02:41.976Z,78.30
2022-09-03T03:05:13.415Z,78.30
2022-09-03T03:07:40.978Z,78.30
2022-09-03T03:10:08.461Z,78.60
2022-09-03T03:12:35.361Z,78.60
2022-09-03T03:15:02.078Z,78.40
2022-09-03T03:17:28.858Z,78.60
2022-09-03T03:19:55.576Z,78.70
2022-09-03T03:22:22.245Z,78.70
2022-09-03T03:24:50.515Z,78.60
2022-09-03T03:27:17.196Z,78.50
2022-09-03T03:29:43.869Z,78.60
2022-09-03T03:32:10.579Z,78.60
2022-09-03T03:34:37.637Z,78.90
2022-09-03T03:37:05.854Z,78.90
2022-09-03T03:39:32.617Z,79.10
2022-09-03T03:41:59.645Z,79.20
2022-09-03T03:44:26.480Z,79.00
2022-09-03T03:46:54.176Z,78.80
2022-09-03T03:49:20.814Z,79.10
2022-09-03T03:51:47.440Z,79.00
2022-09-03T03:54:14.513Z,79.20
2022-09-03T03:56:44.268Z,79.90
2022-09-03T03:59:13.542Z,79.20
2022-09-03T04:01:40.900Z,79.40
2022-09-03T04:04:07.578Z,79.50
2022-09-03T04:06:34.215Z,79.50
2022-09-03T04:09:00.869Z,79.60
2022-09-03T04:11:27.692Z,79.80
2022-09-03T04:13:54.609Z,80.00
2022-09-03T04:16:23.851Z,80.00
2022-09-03T04:18:50.645Z,80.10
2022-09-03T04:21:20.439Z,80.40
2022-09-03T04:23:48.882Z,80.40
2022-09-03T04:26:18.246Z,80.40
2022-09-03T04:28:45.546Z,80.50
2022-09-03T04:31:14.379Z,80.70
2022-09-03T04:33:42.293Z,80.90
2022-09-03T04:36:11.810Z,80.90
2022-09-03T04:38:42.542Z,81.10
2022-09-03T04:41:12.149Z,81.70
2022-09-03T04:43:39.530Z,81.10
2022-09-03T04:46:10.843Z,81.30
2022-09-03T04:48:43.919Z,81.50
2022-09-03T04:51:16.183Z,81.70
2022-09-03T04:53:49.898Z,81.90
2022-09-03T04:56:19.434Z,81.80
2022-09-03T04:58:49.342Z,81.80
2022-09-03T05:01:20.329Z,82.00
2022-09-03T05:03:47.565Z,82.10
2022-09-03T05:06:17.127Z,82.30
2022-09-03T05:08:48.819Z,82.50
2022-09-03T05:11:17.813Z,82.80
2022-09-03T05:13:48.070Z,82.80
2022-09-03T05:16:15.442Z,82.90
2022-09-03T05:18:42.373Z,83.10
2022-09-03T05:21:13.248Z,83.20
2022-09-03T05:23:47.642Z,83.50
2022-09-03T05:26:17.301Z,83.70
2022-09-03T05:28:44.993Z,83.70
2022-09-03T05:31:13.139Z,83.70
2022-09-03T05:33:43.282Z,84.00
2022-09-03T05:36:12.629Z,84.00
2022-09-03T05:38:39.642Z,84.40
2022-09-03T05:41:08.943Z,84.70
2022-09-03T05:43:36.134Z,84.70
2022-09-03T05:46:09.087Z,85.10
2022-09-03T05:48:37.700Z,84.90
2022-09-03T05:51:08.165Z,85.10
2022-09-03T05:53:37.355Z,85.00
2022-09-03T05:56:07.144Z,85.10
2022-09-03T05:58:35.911Z,84.90
2022-09-03T06:01:23.591Z,85.10
2022-09-03T06:03:55.605Z,85.70
2022-09-03T06:06:25.436Z,85.20
2022-09-03T06:08:58.037Z,85.20
2022-09-03T06:11:29.582Z,85.30
2022-09-03T06:13:57.524Z,85.40
2022-09-03T06:16:31.700Z,85.50
2022-09-03T06:19:02.351Z,85.30
2022-09-03T06:21:29.198Z,85.40
2022-09-03T06:23:59.487Z,85.40
2022-09-03T06:26:28.579Z,85.40
2022-09-03T06:28:56.932Z,85.40
2022-09-03T06:31:24.205Z,85.40
2022-09-03T06:33:51.854Z,85.10
2022-09-03T06:36:20.097Z,85.10
2022-09-03T06:38:47.660Z,85.10
2022-09-03T06:41:24.975Z,85.10
2022-09-03T06:44:04.572Z,85.30
2022-09-03T06:46:33.441Z,85.60
2022-09-03T06:49:00.402Z,85.70
2022-09-03T06:51:29.069Z,85.30
2022-09-03T06:54:01.331Z,85.30
2022-09-03T06:56:28.228Z,85.60
2022-09-03T06:58:57.424Z,85.50
2022-09-03T07:01:26.860Z,85.60
2022-09-03T07:03:58.373Z,85.70
2022-09-03T07:06:27.403Z,85.70
2022-09-03T07:08:54.578Z,85.50
2022-09-03T07:11:24.022Z,85.30
2022-09-03T07:13:52.082Z,85.30
2022-09-03T07:16:21.120Z,85.20
2022-09-03T07:18:50.765Z,85.10
2022-09-03T07:21:19.783Z,85.00
2022-09-03T07:23:47.526Z,85.00
2022-09-03T07:26:17.953Z,85.20
2022-09-03T07:28:45.981Z,85.20
2022-09-03T07:31:27.663Z,85.20
2022-09-03T07:34:03.941Z,85.20
2022-09-03T07:36:47.708Z,84.80
2022-09-03T07:39:17.711Z,84.50
2022-09-03T07:41:46.202Z,84.60
2022-09-03T07:44:16.060Z,84.60
2022-09-03T07:46:43.629Z,84.60
2022-09-03T07:49:10.940Z,84.70
2022-09-03T07:51:39.148Z,84.40
2022-09-03T07:54:09.895Z,84.20
2022-09-03T07:56:37.484Z,84.00
2022-09-03T07:59:05.424Z,83.70
2022-09-03T08:01:33.139Z,83.80
2022-09-03T08:04:01.292Z,83.70
2022-09-03T08:06:29.297Z,83.80
2022-09-03T08:09:03.730Z,82.90
2022-09-03T08:11:39.469Z,83.10
2022-09-03T08:14:09.104Z,83.70
2022-09-03T08:16:38.538Z,81.80
2022-09-03T08:19:05.687Z,77.60
2022-09-03T08:21:32.508Z,76.60
2022-09-03T08:24:05.699Z,74.50
2022-09-03T08:26:37.823Z,73.20
2022-09-03T08:29:05.911Z,69.00
2022-09-03T08:31:33.705Z,67.20
2022-09-03T08:34:06.396Z,69.00
2022-09-03T08:36:35.848Z,68.20
2022-09-03T08:39:04.507Z,67.30
2022-09-03T08:42:10.009Z,68.10
2022-09-03T08:44:56.763Z,66.40
2022-09-03T08:47:34.045Z,63.40
2022-09-03T08:50:03.630Z,65.20
2022-09-03T08:52:49.910Z,65.90
2022-09-03T08:55:28.749Z,64.40
2022-09-03T08:58:03.885Z,65.00
2022-09-03T09:00:49.756Z,64.00
2022-09-03T09:03:31.532Z,64.50
2022-09-03T09:06:21.202Z,63.50
2022-09-03T09:08:53.870Z,65.60
2022-09-03T09:11:38.274Z,65.20
2022-09-03T09:14:15.765Z,65.30
2022-09-03T09:17:00.045Z,65.90
2022-09-03T09:20:14.921Z,64.00
2022-09-03T09:22:47.289Z,63.30
2022-09-03T09:25:19.287Z,65.70
2022-09-03T09:27:58.593Z,65.30
2022-09-03T09:30:25.393Z,64.40
2022-09-03T09:32:52.370Z,64.70
2022-09-03T09:35:19.418Z,65.10
2022-09-03T09:37:50.526Z,65.30
2022-09-03T09:40:33.886Z,64.80
2022-09-03T09:43:15.166Z,66.10
2022-09-03T09:45:48.134Z,64.80
2022-09-03T09:48:29.910Z,65.10
2022-09-03T09:51:06.173Z,65.10
2022-09-03T09:53:33.165Z,64.90
2022-09-03T09:56:00.407Z,64.60
2022-09-03T09:58:30.797Z,64.70
2022-09-03T10:01:14.770Z,64.60
2022-09-03T10:03:56.839Z,64.80
2022-09-03T10:06:46.939Z,63.60
2022-09-03T10:09:17.118Z,63.60
2022-09-03T10:11:55.269Z,64.50
2022-09-03T10:14:28.654Z,64.80
2022-09-03T10:17:04.328Z,64.20
2022-09-03T10:20:13.422Z,63.40
2022-09-03T10:22:56.488Z,64.10
2022-09-03T10:25:29.223Z,63.80
2022-09-03T10:27:57.015Z,63.30
2022-09-03T10:30:26.598Z,63.30
2022-09-03T10:33:16.759Z,63.60
2022-09-03T10:35:53.093Z,63.30
2022-09-03T10:38:37.908Z,63.50
2022-09-03T10:41:22.900Z,61.80
2022-09-03T10:44:35.331Z,62.80
2022-09-03T10:47:31.879Z,63.20
2022-09-03T10:50:15.969Z,63.20
2022-09-03T10:52:57.703Z,61.00
2022-09-03T10:55:36.341Z,62.30
2022-09-03T10:58:38.270Z,61.80
2022-09-03T11:01:32.913Z,62.30
2022-09-03T11:04:17.726Z,62.30
2022-09-03T11:07:02.822Z,61.80
2022-09-03T11:09:39.855Z,62.10
2022-09-03T11:12:12.277Z,62.40
2022-09-03T11:14:44.915Z,61.70
2022-09-03T11:17:27.993Z,61.00
2022-09-03T11:20:09.804Z,61.20
2022-09-03T11:22:38.974Z,60.80
2022-09-03T11:25:07.367Z,61.60
2022-09-03T11:27:47.357Z,61.10
2022-09-03T11:30:23.499Z,60.50
2022-09-03T11:32:56.021Z,61.80
2022-09-03T11:35:31.613Z,60.70
2022-09-03T11:38:04.787Z,60.00
2022-09-03T11:40:37.837Z,60.30
2022-09-03T11:43:23.933Z,59.90
2022-09-03T11:46:06.936Z,60.00
2022-09-03T11:48:48.077Z,60.50
2022-09-03T11:51:21.513Z,60.20
2022-09-03T11:54:01.261Z,59.90
2022-09-03T11:56:29.686Z,60.30
2022-09-03T11:59:17.887Z,60.70
2022-09-03T12:01:52.386Z,60.50
2022-09-03T12:04:25.412Z,60.40
2022-09-03T12:07:17.583Z,59.90
2022-09-03T12:09:51.456Z,60.00
2022-09-03T12:12:56.177Z,60.50
2022-09-03T12:15:47.666Z,59.60
2022-09-03T12:18:18.983Z,60.40
2022-09-03T12:21:05.139Z,59.60
2022-09-03T12:23:50.158Z,59.10
2022-09-03T12:26:19.861Z,59.10
2022-09-03T12:28:55.439Z,60.40
2022-09-03T12:31:25.376Z,60.00
2022-09-03T12:33:59.184Z,60.20
2022-09-03T12:36:37.088Z,60.00
2022-09-03T12:42:25.640Z,60.20
2022-09-03T12:44:52.391Z,60.30
2022-09-03T12:47:38.006Z,60.50
2022-09-03T12:50:09.295Z,59.90
2022-09-03T12:52:56.608Z,60.40
2022-09-03T12:55:43.448Z,60.20
2022-09-03T12:58:27.154Z,60.20
2022-09-03T13:01:09.208Z,60.30
2022-09-03T13:03:43.865Z,60.30
2022-09-03T13:06:14.895Z,60.50
2022-09-03T13:08:50.238Z,60.50
2022-09-03T13:11:21.506Z,60.50
2022-09-03T13:14:12.630Z,61.00
2022-09-03T13:16:50.118Z,60.50
2022-09-03T13:19:51.773Z,60.30
2022-09-03T13:22:47.413Z,60.50
2022-09-03T13:25:19.600Z,60.50
2022-09-03T13:28:03.911Z,60.40
2022-09-03T13:30:52.193Z,60.90
2022-09-03T13:33:29.342Z,60.40
2022-09-03T13:36:05.540Z,60.20
2022-09-03T13:38:37.257Z,60.10
2022-09-03T13:41:19.681Z,60.30
2022-09-03T13:43:50.626Z,60.50
2022-09-03T13:46:25.076Z,60.90
2022-09-03T13:49:27.583Z,61.10
2022-09-03T13:52:01.807Z,60.70
2022-09-03T13:54:50.491Z,60.70
2022-09-03T13:57:52.597Z,60.40
2022-09-03T14:00:30.280Z,61.40
2022-09-03T14:03:26.685Z,60.70
2022-09-03T14:06:18.418Z,61.80
2022-09-03T14:09:00.929Z,60.60
2022-09-03T14:11:49.145Z,61.50
2022-09-03T14:14:39.594Z,61.80
2022-09-03T14:17:31.964Z,60.60
2022-09-03T14:20:07.004Z,61.40
2022-09-03T14:22:45.437Z,61.00
2022-09-03T14:25:17.355Z,61.20
2022-09-03T14:27:44.438Z,60.80
2022-09-03T14:30:17.026Z,60.80
2022-09-03T14:32:47.762Z,60.80
2022-09-03T14:35:36.591Z,61.10
2022-09-03T14:38:23.878Z,60.80
2022-09-03T14:40:58.321Z,61.20
2022-09-03T14:44:09.403Z,61.60
2022-09-03T14:46:43.285Z,60.60
2022-09-03T14:49:14.427Z,61.30
2022-09-03T14:52:06.050Z,61.50
2022-09-03T14:55:01.821Z,61.10
2022-09-03T14:57:31.408Z,61.50
2022-09-03T15:00:06.632Z,61.50
2022-09-03T15:02:33.661Z,62.00
2022-09-03T15:05:16.164Z,62.30
2022-09-03T15:07:56.067Z,61.60
2022-09-03T15:10:51.148Z,62.30
2022-09-03T15:13:30.807Z,61.90
2022-09-03T15:16:28.435Z,61.70
2022-09-03T15:19:13.777Z,61.60
2022-09-03T15:21:46.293Z,62.00
2022-09-03T15:24:31.650Z,61.90
2022-09-03T15:27:06.787Z,61.90
2022-09-03T15:29:33.333Z,62.60
2022-09-03T15:32:42.258Z,62.40
2022-09-03T15:35:18.850Z,62.10
2022-09-03T15:37:56.387Z,62.30
2022-09-03T15:40:25.983Z,63.00
2022-09-03T15:43:04.326Z,63.40
2022-09-03T15:45:39.422Z,62.60
2022-09-03T15:48:28.082Z,63.60
2022-09-03T15:51:10.475Z,62.90
2022-09-03T15:53:50.115Z,61.90
2022-09-03T15:56:28.183Z,62.30
2022-09-03T15:59:03.330Z,63.10
2022-09-03T16:01:45.859Z,62.60
2022-09-03T16:04:46.057Z,62.50
2022-09-03T16:07:37.409Z,62.60
2022-09-03T16:10:30.814Z,62.10
2022-09-03T16:13:28.809Z,62.60
2022-09-03T16:16:03.761Z,62.60
2022-09-03T16:18:45.600Z,63.40
2022-09-03T16:21:29.866Z,63.20
2022-09-03T16:24:20.401Z,63.10
2022-09-03T16:26:46.973Z,63.40
2022-09-03T16:29:15.855Z,63.30
2022-09-03T16:32:19.259Z,63.40
2022-09-03T16:35:07.562Z,64.40
2022-09-03T16:38:00.793Z,64.10
2022-09-03T16:41:08.858Z,64.60
2022-09-03T16:43:54.568Z,64.10
2022-09-03T16:46:49.777Z,64.10
2022-09-03T16:49:36.019Z,64.40
2022-09-03T16:52:19.081Z,64.10
2022-09-03T16:55:18.625Z,64.00
2022-09-03T16:58:10.715Z,64.70
2022-09-03T17:00:58.099Z,64.90
2022-09-03T17:03:48.154Z,65.30
2022-09-03T17:06:29.772Z,65.10
2022-09-03T17:09:27.603Z,64.80
2022-09-03T17:12:37.508Z,65.30
2022-09-03T17:15:17.055Z,65.40
2022-09-03T17:17:49.562Z,65.10
2022-09-03T17:20:49.533Z,65.10
2022-09-03T17:23:49.671Z,65.50
2022-09-03T17:26:16.719Z,65.40
2022-09-03T17:29:04.322Z,65.40
2022-09-03T17:32:00.235Z,65.90
2022-09-03T17:35:04.372Z,65.90
2022-09-03T17:37:33.761Z,66.40
2022-09-03T17:40:17.237Z,66.20
2022-09-03T17:43:02.078Z,67.10
2022-09-03T17:45:49.962Z,66.80
2022-09-03T17:48:49.631Z,66.90
2022-09-03T17:51:39.463Z,67.20
2022-09-03T17:54:33.807Z,67.00
2022-09-03T17:57:37.785Z,67.00
2022-09-03T18:00:22.659Z,67.60
2022-09-03T18:03:07.079Z,67.60
2022-09-03T18:05:46.001Z,67.40
2022-09-03T18:08:24.728Z,67.30
2022-09-03T18:11:12.809Z,67.70
2022-09-03T18:14:06.939Z,68.00
2022-09-03T18:16:37.428Z,67.30
2022-09-03T18:19:29.157Z,67.50
2022-09-03T18:22:20.849Z,67.90
2022-09-03T18:25:13.350Z,68.10
2022-09-03T18:28:13.704Z,68.20
2022-09-03T18:30:59.199Z,68.40
2022-09-03T18:33:45.216Z,68.60
2022-09-03T18:36:31.723Z,68.80
2022-09-03T18:39:33.044Z,69.20
2022-09-03T18:42:40.618Z,69.10
2022-09-03T18:49:00.841Z,68.90
2022-09-03T18:52:10.143Z,69.00
2022-09-03T18:55:20.309Z,68.40
2022-09-03T18:58:14.791Z,68.30
2022-09-03T19:01:21.195Z,68.40
2022-09-03T19:04:33.949Z,68.40
2022-09-03T19:07:33.541Z,68.40
2022-09-03T19:10:26.668Z,68.40
2022-09-03T19:13:42.778Z,68.20
2022-09-03T19:16:36.396Z,68.40
2022-09-03T19:19:42.821Z,68.60
2022-09-03T19:22:29.901Z,68.60
2022-09-03T19:25:30.649Z,68.30
2022-09-03T19:28:37.464Z,68.70
2022-09-03T19:32:01.946Z,68.80
2022-09-03T19:35:19.410Z,68.30
2022-09-03T19:38:19.131Z,68.40
2022-09-03T19:41:21.253Z,68.50
2022-09-03T19:44:35.473Z,68.60
2022-09-03T19:47:22.867Z,68.20
2022-09-03T19:50:31.034Z,68.30
2022-09-03T19:53:20.367Z,68.40
2022-09-03T19:56:12.490Z,68.40
2022-09-03T19:59:29.838Z,68.20
2022-09-03T20:02:15.342Z,68.40
2022-09-03T20:05:05.008Z,68.40
2022-09-03T20:07:52.422Z,68.40
2022-09-03T20:10:23.157Z,68.40
2022-09-03T20:13:08.273Z,68.40
2022-09-03T20:16:07.179Z,68.40
2022-09-03T20:18:58.566Z,68.40
2022-09-03T20:21:39.899Z,68.50
2022-09-03T20:24:11.138Z,68.70
2022-09-03T20:26:55.657Z,68.50
2022-09-03T20:30:02.415Z,68.80
2022-09-03T20:32:55.870Z,69.30
2022-09-03T20:36:18.574Z,68.90
2022-09-03T20:38:50.741Z,69.50
2022-09-03T20:41:40.777Z,68.80
2022-09-03T20:44:18.859Z,68.80
2022-09-03T20:47:21.254Z,68.90
2022-09-03T20:50:43.604Z,69.30
2022-09-03T20:53:22.607Z,68.70
2022-09-03T20:55:53.065Z,69.50
2022-09-03T20:58:52.185Z,69.40
2022-09-03T21:01:51.089Z,69.30
2022-09-03T21:04:25.218Z,68.70
2022-09-03T21:07:14.582Z,68.90
2022-09-03T21:10:01.824Z,69.20
2022-09-03T21:12:34.044Z,68.70
2022-09-03T21:15:19.077Z,69.20
2022-09-03T21:18:04.298Z,68.90
2022-09-03T21:20:44.899Z,68.70
2022-09-03T21:23:25.559Z,68.50
2022-09-03T21:25:59.810Z,68.80
2022-09-03T21:28:33.500Z,68.90
2022-09-03T21:31:04.810Z,69.00
2022-09-03T21:33:39.388Z,69.00
2022-09-03T21:36:23.173Z,69.70
2022-09-03T21:38:58.142Z,69.30
2022-09-03T21:41:44.331Z,69.40
2022-09-03T21:44:14.957Z,69.10
2022-09-03T21:47:05.751Z,69.10
2022-09-03T21:49:40.585Z,68.70
2022-09-03T21:52:12.868Z,69.20
2022-09-03T21:54:39.617Z,69.20
2022-09-03T21:57:18.890Z,69.10
2022-09-03T22:00:04.661Z,69.30
2022-09-03T22:02:32.776Z,69.30
2022-09-03T22:05:01.141Z,68.90
2022-09-03T22:07:53.164Z,69.10
2022-09-03T22:10:42.013Z,68.70
2022-09-03T22:13:32.515Z,68.90
2022-09-03T22:16:16.897Z,69.10
2022-09-03T22:18:43.988Z,69.00
2022-09-03T22:21:41.022Z,69.20
2022-09-03T22:24:24.463Z,69.20
2022-09-03T22:27:25.245Z,69.30
2022-09-03T22:30:08.455Z,69.60
2022-09-03T22:32:37.866Z,69.60
2022-09-03T22:35:31.862Z,69.30
2022-09-03T22:38:20.150Z,69.10
2022-09-03T22:40:52.694Z,69.40
2022-09-03T22:43:45.815Z,69.40
2022-09-03T22:46:15.678Z,69.20
2022-09-03T22:49:01.567Z,69.20
2022-09-03T22:51:34.519Z,69.20
2022-09-03T22:54:23.613Z,69.70
2022-09-03T22:56:52.602Z,69.60
2022-09-03T22:59:26.372Z,69.70
2022-09-03T23:02:08.635Z,69.70
2022-09-03T23:05:06.463Z,69.70
2022-09-03T23:07:54.772Z,70.10
2022-09-03T23:10:27.754Z,70.50
2022-09-03T23:13:10.730Z,70.30
2022-09-03T23:15:39.500Z,70.90
2022-09-03T23:18:27.045Z,70.60
2022-09-03T23:21:06.177Z,71.10
2022-09-03T23:23:50.431Z,70.90
2022-09-03T23:26:43.043Z,70.90
2022-09-03T23:29:20.701Z,71.40
2022-09-03T23:31:47.495Z,71.30
2022-09-03T23:34:14.228Z,71.60
2022-09-03T23:40:02.205Z,71.50
2022-09-03T23:42:44.922Z,71.40
2022-09-03T23:45:31.805Z,71.90
2022-09-03T23:48:21.804Z,72.00
2022-09-03T23:51:17.799Z,72.60
2022-09-03T23:54:13.550Z,73.30
2022-09-03T23:56:52.391Z,73.00
2022-09-03T23:59:29.741Z,72.80
